Time;durP1;ratioP1;P1;durP2;ratioP2;P2;SDS_P1;SDS_P2;PMS_P1;PMS_P2;Temp;Humidity;BMP_temperature;BMP_pressure;BME280_temperature;BME280_humidity;BME280_pressure;Samples;Min_cycle;Max_cycle;Signal;HPM_P1;HPM_P2
2021/03/28 00:01:23;;;;;;;12.30;6.22;;;6.70;99.90;;;;;;5066757;28;20278;-74
2021/03/28 00:03:55;;;;;;;14.80;5.47;;;6.80;99.90;;;;;;5066324;28;20204;-75
2021/03/28 00:06:21;;;;;;;11.32;6.85;;;6.80;99.90;;;;;;5068252;28;20604;-74
2021/03/28 00:09:07;;;;;;;11.10;6.50;;;6.80;99.90;;;;;;5060284;28;20234;-73
2021/03/28 00:11:50;;;;;;;14.32;6.15;;;6.90;99.90;;;;;;5050365;28;20544;-75
2021/03/28 00:14:23;;;;;;;8.52;5.22;;;6.90;99.90;;;;;;5066455;28;20243;-74
2021/03/28 00:16:50;;;;;;;8.85;5.30;;;6.90;99.90;;;;;;5066906;28;20574;-74
2021/03/28 00:19:33;;;;;;;12.88;5.50;;;6.90;99.90;;;;;;5042555;23;20307;-83
2021/03/28 00:22:10;;;;;;;11.68;5.43;;;6.90;99.90;;;;;;5016827;28;20194;-82
2021/03/28 00:25:01;;;;;;;14.35;5.80;;;7.00;99.90;;;;;;5038051;28;20567;-83
2021/03/28 00:27:43;;;;;;;10.57;4.75;;;7.00;99.90;;;;;;5037300;28;20260;-83
2021/03/28 00:30:35;;;;;;;11.43;4.75;;;7.00;99.90;;;;;;5036256;28;20199;-83
2021/03/28 00:33:02;;;;;;;11.35;5.35;;;7.00;99.90;;;;;;5036178;28;20189;-83
2021/03/28 00:35:51;;;;;;;19.15;5.45;;;7.00;99.90;;;;;;5020546;28;20172;-84
2021/03/28 00:38:38;;;;;;;8.80;5.65;;;7.10;99.90;;;;;;5020633;28;20166;-83
2021/03/28 00:41:13;;;;;;;9.07;5.25;;;7.10;99.90;;;;;;5019789;28;20193;-83
2021/03/28 00:43:49;;;;;;;9.15;5.07;;;7.10;99.90;;;;;;5037051;28;20189;-83
2021/03/28 00:46:45;;;;;;;15.57;5.55;;;7.10;99.90;;;;;;5035871;28;20615;-83
2021/03/28 00:49:36;;;;;;;10.73;4.68;;;7.10;99.90;;;;;;5014399;28;20205;-83
2021/03/28 00:52:24;;;;;;;10.60;5.53;;;7.10;99.90;;;;;;5013683;28;20586;-83
2021/03/28 00:55:14;;;;;;;13.90;5.38;;;7.10;99.90;;;;;;5016437;28;20454;-83
2021/03/28 00:58:11;;;;;;;8.20;5.53;;;7.10;99.90;;;;;;5016479;28;20192;-84
2021/03/28 01:01:13;;;;;;;7.38;5.47;;;7.20;99.90;;;;;;5015775;28;20186;-83
2021/03/28 01:04:10;;;;;;;11.93;6.43;;;7.20;99.90;;;;;;5032529;28;20166;-83
2021/03/28 01:06:50;;;;;;;10.45;5.65;;;7.20;99.90;;;;;;5016307;28;20523;-83
2021/03/28 01:09:34;;;;;;;18.67;7.10;;;7.20;99.90;;;;;;5015426;28;20521;-83
2021/03/28 01:12:40;;;;;;;14.00;5.60;;;7.20;99.90;;;;;;5015388;28;20180;-82
2021/03/28 01:15:44;;;;;;;8.73;6.68;;;7.20;99.90;;;;;;5014768;28;20276;-82
2021/03/28 01:18:43;;;;;;;9.70;6.18;;;7.30;99.90;;;;;;5015063;28;20286;-83
2021/03/28 01:21:45;;;;;;;11.55;5.90;;;7.30;99.90;;;;;;5015167;28;20193;-82
2021/03/28 01:24:45;;;;;;;10.25;6.32;;;7.30;99.90;;;;;;5026863;28;20245;-83
2021/03/28 01:27:25;;;;;;;12.02;5.32;;;7.20;99.90;;;;;;5035515;28;20186;-83
2021/03/28 01:30:03;;;;;;;11.57;6.43;;;7.30;99.90;;;;;;5018128;28;20193;-83
2021/03/28 01:32:47;;;;;;;9.38;5.60;;;7.30;99.90;;;;;;5034508;28;20803;-83
2021/03/28 01:35:20;;;;;;;9.90;5.25;;;7.40;99.90;;;;;;5035756;28;20178;-83
2021/03/28 01:37:58;;;;;;;9.13;5.15;;;7.30;99.90;;;;;;5000609;28;20242;-83
2021/03/28 01:40:51;;;;;;;8.07;4.95;;;7.30;99.90;;;;;;4996217;28;20590;-83
2021/03/28 01:43:28;;;;;;;13.30;5.97;;;7.40;99.90;;;;;;4996212;28;20260;-83
2021/03/28 01:46:05;;;;;;;10.98;5.72;;;7.30;99.90;;;;;;4995832;28;20600;-83
2021/03/28 01:49:14;;;;;;;9.45;5.15;;;7.30;99.90;;;;;;4997642;28;20246;-83
2021/03/28 01:52:07;;;;;;;9.43;4.88;;;7.40;99.90;;;;;;5014437;28;20182;-83
2021/03/28 01:55:40;;;;;;;13.18;5.68;;;7.40;99.90;;;;;;5012059;28;20260;-82
2021/03/28 01:58:26;;;;;;;7.75;4.63;;;7.40;99.90;;;;;;4989156;28;20647;-83
2021/03/28 02:01:08;;;;;;;9.57;4.60;;;7.30;99.90;;;;;;5047765;28;20209;-83
2021/03/28 02:04:07;;;;;;;11.70;5.35;;;7.40;99.90;;;;;;5033272;28;20178;-83
2021/03/28 02:07:08;;;;;;;7.78;4.38;;;7.40;99.90;;;;;;5035049;28;20227;-83
2021/03/28 02:10:09;;;;;;;11.43;5.32;;;7.40;99.90;;;;;;5034092;28;20202;-83
2021/03/28 02:13:02;;;;;;;10.57;4.93;;;7.40;99.90;;;;;;5034023;28;20215;-83
2021/03/28 02:15:39;;;;;;;12.95;4.90;;;7.30;99.90;;;;;;5034684;28;20666;-83
2021/03/28 02:18:16;;;;;;;10.48;5.22;;;7.30;99.90;;;;;;5034500;28;20271;-83
2021/03/28 02:20:52;;;;;;;17.95;4.90;;;7.40;99.90;;;;;;4994497;28;20183;-83
2021/03/28 02:23:30;;;;;;;11.68;4.65;;;7.40;99.90;;;;;;5015374;28;20194;-83
2021/03/28 02:26:38;;;;;;;10.80;4.85;;;7.40;99.90;;;;;;5033776;28;20521;-84
2021/03/28 02:29:42;;;;;;;10.05;5.05;;;7.40;99.90;;;;;;5032930;28;20283;-83
2021/03/28 02:32:14;;;;;;;11.30;6.00;;;7.30;99.90;;;;;;5016623;28;20525;-82
2021/03/28 02:35:35;;;;;;;8.75;4.97;;;7.40;99.90;;;;;;5033681;28;20180;-83
2021/03/28 02:38:23;;;;;;;10.83;5.30;;;7.30;99.90;;;;;;5041774;28;20186;-83
2021/03/28 02:41:06;;;;;;;6.95;4.70;;;7.30;99.90;;;;;;5033295;28;20415;-83
2021/03/28 02:43:44;;;;;;;12.05;5.50;;;7.40;99.90;;;;;;5017296;28;20191;-83
2021/03/28 02:46:25;;;;;;;16.13;5.20;;;7.30;99.90;;;;;;5028217;28;20183;-83
2021/03/28 02:49:18;;;;;;;13.70;4.70;;;7.30;99.90;;;;;;5013445;28;20270;-83
2021/03/28 02:52:04;;;;;;;8.18;4.13;;;7.30;99.90;;;;;;5014301;28;20418;-83
2021/03/28 02:54:47;;;;;;;12.30;4.45;;;7.30;99.90;;;;;;5029791;28;20245;-83
2021/03/28 02:57:40;;;;;;;8.68;4.20;;;7.30;99.90;;;;;;5014747;28;20206;-83
2021/03/28 03:00:38;;;;;;;8.20;4.00;;;7.30;99.90;;;;;;5014501;28;20170;-83
2021/03/28 03:03:27;;;;;;;9.20;4.60;;;7.30;99.90;;;;;;4997236;28;20237;-83
2021/03/28 03:06:49;;;;;;;10.70;5.20;;;7.40;99.90;;;;;;5029684;28;20746;-83
2021/03/28 03:09:54;;;;;;;14.07;4.70;;;7.40;99.90;;;;;;5023420;28;20422;-83
2021/03/28 03:12:54;;;;;;;8.55;3.88;;;7.40;99.90;;;;;;5013835;28;20292;-83
2021/03/28 03:16:20;;;;;;;8.65;5.15;;;7.40;99.90;;;;;;5029648;28;20169;-83
2021/03/28 03:19:15;;;;;;;6.15;3.85;;;7.40;99.90;;;;;;5011854;28;20277;-83
2021/03/28 03:21:44;;;;;;;10.88;4.13;;;7.40;99.90;;;;;;5012042;28;20186;-83
2021/03/28 03:24:37;;;;;;;7.22;4.13;;;7.40;99.90;;;;;;5012121;28;20207;-83
2021/03/28 03:27:20;;;;;;;4.68;3.55;;;7.30;99.90;;;;;;4991855;28;20205;-83
2021/03/28 03:30:11;;;;;;;11.02;4.60;;;7.40;99.90;;;;;;4992377;28;20309;-83
2021/03/28 03:33:06;;;;;;;5.97;3.70;;;7.40;99.90;;;;;;4976306;28;20211;-83
2021/03/28 03:35:50;;;;;;;7.30;4.13;;;7.40;99.90;;;;;;4992328;28;20201;-83
2021/03/28 03:38:27;;;;;;;7.25;3.08;;;7.40;99.90;;;;;;4976478;28;20194;-83
2021/03/28 03:41:52;;;;;;;4.53;4.05;;;7.40;99.90;;;;;;4960878;28;20241;-83
2021/03/28 03:44:51;;;;;;;8.73;4.13;;;7.40;99.90;;;;;;4946064;28;20524;-83
2021/03/28 03:47:52;;;;;;;10.25;4.07;;;7.40;99.90;;;;;;4953535;29;20177;-83
2021/03/28 03:50:31;;;;;;;14.93;4.93;;;7.40;99.90;;;;;;4991880;28;20194;-83
2021/03/28 03:53:19;;;;;;;6.22;4.70;;;7.30;99.90;;;;;;4997241;28;20214;-83
2021/03/28 03:56:11;;;;;;;8.50;4.10;;;7.30;99.90;;;;;;5032721;28;20301;-83
2021/03/28 03:58:57;;;;;;;7.07;3.95;;;7.20;99.90;;;;;;5033468;28;20186;-83
2021/03/28 04:01:32;;;;;;;10.50;4.80;;;7.20;99.90;;;;;;5036199;28;20555;-83
2021/03/28 04:04:22;;;;;;;6.85;4.15;;;7.20;99.90;;;;;;5037084;28;20181;-83
2021/03/28 04:07:42;;;;;;;5.03;3.70;;;7.10;99.90;;;;;;5037442;28;20169;-83
2021/03/28 04:10:08;;;;;;;7.55;4.32;;;7.10;99.90;;;;;;4976770;28;20260;-83
2021/03/28 04:12:44;;;;;;;14.13;4.18;;;7.00;99.90;;;;;;5035971;28;20259;-82
2021/03/28 04:15:36;;;;;;;6.32;4.15;;;7.00;99.90;;;;;;5019236;28;20185;-83
2021/03/28 04:18:25;;;;;;;13.63;5.00;;;7.00;99.90;;;;;;5016089;28;20241;-83
2021/03/28 04:21:00;;;;;;;5.32;3.28;;;7.00;99.90;;;;;;5016668;28;20166;-83
2021/03/28 04:23:37;;;;;;;10.75;4.70;;;7.00;99.90;;;;;;5018600;28;20208;-83
2021/03/28 04:26:30;;;;;;;11.57;4.97;;;7.00;99.90;;;;;;4999928;28;20230;-83
2021/03/28 04:29:10;;;;;;;8.18;5.40;;;6.90;99.90;;;;;;5016771;28;20273;-83
2021/03/28 04:32:04;;;;;;;8.00;4.60;;;7.00;99.90;;;;;;5016171;28;20276;-83
2021/03/28 04:34:35;;;;;;;7.20;4.22;;;7.10;99.90;;;;;;5015844;28;20452;-83
2021/03/28 04:37:26;;;;;;;8.95;4.40;;;7.00;99.90;;;;;;5000360;28;20174;-83
2021/03/28 04:40:06;;;;;;;6.17;3.67;;;7.00;99.90;;;;;;5016142;28;20566;-83
2021/03/28 04:42:49;;;;;;;12.27;4.13;;;7.00;99.90;;;;;;5016901;28;20508;-83
2021/03/28 04:45:45;;;;;;;12.73;4.28;;;7.00;99.90;;;;;;5031817;28;20550;-83
2021/03/28 04:48:29;;;;;;;6.10;4.03;;;7.10;99.90;;;;;;5032326;28;20273;-84
2021/03/28 04:50:57;;;;;;;7.80;4.70;;;7.00;99.90;;;;;;5016513;28;20166;-83
2021/03/28 04:54:05;;;;;;;7.55;3.53;;;7.00;99.90;;;;;;5036875;28;20255;-83
2021/03/28 04:57:11;;;;;;;10.15;4.90;;;7.10;99.90;;;;;;5035531;28;20189;-84
2021/03/28 04:59:59;;;;;;;7.20;4.00;;;7.10;99.90;;;;;;5036363;28;20193;-84
2021/03/28 05:02:35;;;;;;;18.05;5.95;;;7.20;99.90;;;;;;5035591;28;20513;-84
2021/03/28 05:05:29;;;;;;;6.28;4.13;;;7.30;99.90;;;;;;5035417;28;20167;-84
2021/03/28 05:08:15;;;;;;;7.50;4.33;;;7.30;99.90;;;;;;5035190;28;20267;-84
2021/03/28 05:11:01;;;;;;;9.43;3.95;;;7.30;99.90;;;;;;5035794;28;20433;-84
2021/03/28 05:13:48;;;;;;;9.00;4.35;;;7.30;99.90;;;;;;5027458;28;20565;-84
2021/03/28 05:16:58;;;;;;;9.13;4.43;;;7.30;99.90;;;;;;4999107;28;20188;-84
2021/03/28 05:19:32;;;;;;;12.20;4.18;;;7.30;99.90;;;;;;5015862;28;20480;-83
2021/03/28 05:22:13;;;;;;;10.30;4.63;;;7.30;99.90;;;;;;5014997;28;20179;-83
2021/03/28 05:25:14;;;;;;;11.18;4.20;;;7.30;99.90;;;;;;5015213;28;20218;-83
2021/03/28 05:27:48;;;;;;;8.48;4.10;;;7.30;99.90;;;;;;5016043;28;20188;-83
2021/03/28 05:30:51;;;;;;;11.05;4.13;;;7.30;99.90;;;;;;5031627;28;20222;-83
2021/03/28 05:33:26;;;;;;;7.70;5.00;;;7.30;99.90;;;;;;5014581;28;20305;-84
2021/03/28 05:36:23;;;;;;;8.07;4.65;;;7.30;99.90;;;;;;5015013;28;20417;-83
2021/03/28 05:39:23;;;;;;;7.57;4.72;;;7.30;99.90;;;;;;5030932;28;20506;-84
2021/03/28 05:42:11;;;;;;;10.65;6.30;;;7.30;99.90;;;;;;5010081;28;20664;-84
2021/03/28 05:44:54;;;;;;;8.13;4.10;;;7.30;99.90;;;;;;4979156;28;20180;-84
2021/03/28 05:47:32;;;;;;;6.32;4.50;;;7.30;99.90;;;;;;4995472;28;20186;-84
2021/03/28 05:50:18;;;;;;;6.00;4.40;;;7.30;99.90;;;;;;4996041;28;20200;-83
2021/03/28 05:52:58;;;;;;;4.75;4.10;;;7.30;99.90;;;;;;4978274;28;20525;-83
2021/03/28 05:56:05;;;;;;;5.55;4.57;;;7.30;99.90;;;;;;4996014;28;20203;-84
2021/03/28 05:59:00;;;;;;;8.70;4.35;;;7.40;99.90;;;;;;5015363;28;20700;-84
2021/03/28 06:01:44;;;;;;;5.90;4.07;;;7.40;99.90;;;;;;5011023;28;20163;-83
2021/03/28 06:04:35;;;;;;;12.20;4.50;;;7.50;99.90;;;;;;4995773;28;20232;-84
2021/03/28 06:07:41;;;;;;;10.68;4.50;;;7.60;99.90;;;;;;4995445;28;20202;-83
2021/03/28 06:10:31;;;;;;;10.90;4.10;;;7.60;99.90;;;;;;4994746;28;20206;-84
2021/03/28 06:13:39;;;;;;;5.85;4.20;;;7.60;99.90;;;;;;5021509;28;20221;-83
2021/03/28 06:16:32;;;;;;;6.05;4.15;;;7.60;99.90;;;;;;5015876;28;20690;-84
2021/03/28 06:19:22;;;;;;;5.77;3.67;;;7.60;99.90;;;;;;5001121;28;20288;-85
2021/03/28 06:22:12;;;;;;;10.25;4.55;;;7.70;99.90;;;;;;4992576;28;20499;-84
2021/03/28 06:25:01;;;;;;;8.65;6.03;;;7.70;99.90;;;;;;5008048;28;20203;-84
2021/03/28 06:27:44;;;;;;;8.05;3.85;;;7.80;99.90;;;;;;5013126;28;20168;-83
2021/03/28 06:30:31;;;;;;;9.07;4.70;;;7.80;99.90;;;;;;5028299;28;20241;-84
2021/03/28 06:33:18;;;;;;;6.50;4.40;;;7.80;99.90;;;;;;5013088;28;20233;-83
2021/03/28 06:36:22;;;;;;;6.40;4.53;;;7.90;99.90;;;;;;5013137;28;20463;-84
2021/03/28 06:39:30;;;;;;;9.20;4.75;;;7.90;99.90;;;;;;5012031;28;20202;-84
2021/03/28 06:42:17;;;;;;;8.10;4.47;;;7.90;99.90;;;;;;5010865;28;20203;-83
2021/03/28 06:45:17;;;;;;;8.57;4.53;;;7.90;99.90;;;;;;5012075;28;20418;-83
2021/03/28 06:48:00;;;;;;;12.93;4.30;;;8.00;99.90;;;;;;4996058;28;20239;-83
2021/03/28 06:50:51;;;;;;;11.52;3.97;;;8.00;99.90;;;;;;5012531;28;20415;-83
2021/03/28 06:53:37;;;;;;;12.50;4.18;;;8.00;99.90;;;;;;5011466;28;20225;-84
2021/03/28 06:56:20;;;;;;;9.25;4.70;;;8.10;99.90;;;;;;5012922;28;20171;-82
2021/03/28 06:59:23;;;;;;;5.00;4.00;;;8.10;99.90;;;;;;5012361;28;20218;-83
2021/03/28 07:02:06;;;;;;;9.07;4.50;;;8.20;99.90;;;;;;5012390;28;20190;-84
2021/03/28 07:04:50;;;;;;;4.55;3.65;;;8.30;99.90;;;;;;5012749;28;20195;-83
2021/03/28 07:07:37;;;;;;;6.47;4.13;;;8.30;99.90;;;;;;5011926;28;20282;-83
2021/03/28 07:10:31;;;;;;;6.15;4.15;;;8.40;99.90;;;;;;5013000;28;20433;-83
2021/03/28 07:13:25;;;;;;;7.13;4.60;;;8.40;99.90;;;;;;5012421;28;20222;-83
2021/03/28 07:16:24;;;;;;;6.70;3.65;;;8.50;99.90;;;;;;5012736;28;20708;-83
2021/03/28 07:19:05;;;;;;;6.00;3.60;;;8.50;99.90;;;;;;4999946;28;20234;-83
2021/03/28 07:22:07;;;;;;;9.00;4.70;;;8.60;99.90;;;;;;4976162;28;20427;-83
2021/03/28 07:25:06;;;;;;;8.43;3.90;;;8.70;99.90;;;;;;5004885;28;20450;-82
2021/03/28 07:27:53;;;;;;;6.23;4.63;;;8.60;99.90;;;;;;5011448;28;20494;-82
2021/03/28 07:30:40;;;;;;;6.80;4.30;;;8.70;99.90;;;;;;5011699;28;20760;-82
2021/03/28 07:33:37;;;;;;;5.87;3.90;;;8.80;99.90;;;;;;5011566;28;20458;-82
2021/03/28 07:36:47;;;;;;;6.27;3.67;;;8.90;99.90;;;;;;5016073;28;20403;-82
2021/03/28 07:39:16;;;;;;;5.33;3.87;;;8.90;99.90;;;;;;5013594;28;20434;-82
2021/03/28 07:42:22;;;;;;;5.60;4.07;;;9.10;99.90;;;;;;5029537;28;20437;-82
2021/03/28 07:45:20;;;;;;;10.97;4.70;;;9.10;99.90;;;;;;5035519;28;20786;-82
2021/03/28 07:48:31;;;;;;;4.20;3.87;;;9.20;99.90;;;;;;5002668;28;20604;-82
2021/03/28 07:51:12;;;;;;;9.20;4.60;;;9.30;99.90;;;;;;5033828;28;20457;-82
2021/03/28 07:54:30;;;;;;;5.03;4.03;;;9.40;99.90;;;;;;5011902;28;20466;-82
2021/03/28 07:57:19;;;;;;;6.43;4.03;;;9.50;99.90;;;;;;5016083;28;20505;-83
2021/03/28 08:00:24;;;;;;;6.73;4.90;;;9.70;99.90;;;;;;4998620;28;21307;-82
2021/03/28 08:03:19;;;;;;;8.70;4.60;;;9.80;99.90;;;;;;5015691;28;20763;-83
2021/03/28 08:05:59;;;;;;;10.60;4.10;;;9.90;99.90;;;;;;4998932;28;20477;-82
2021/03/28 08:09:00;;;;;;;5.70;4.13;;;10.00;99.90;;;;;;5014679;28;20455;-82
2021/03/28 08:11:46;;;;;;;6.70;4.00;;;10.10;99.90;;;;;;5014506;28;20806;-83
2021/03/28 08:14:30;;;;;;;5.13;4.20;;;10.20;99.90;;;;;;5014155;28;20529;-82
2021/03/28 08:17:03;;;;;;;7.07;4.40;;;10.20;99.90;;;;;;5016057;28;20420;-82
2021/03/28 08:20:12;;;;;;;9.37;4.17;;;10.30;99.90;;;;;;5016203;28;20472;-82
2021/03/28 08:23:20;;;;;;;5.60;4.00;;;10.40;99.90;;;;;;5015766;28;20428;-82
2021/03/28 08:26:13;;;;;;;6.90;4.37;;;10.50;99.90;;;;;;5011063;28;20406;-82
2021/03/28 08:28:55;;;;;;;5.27;4.37;;;10.50;99.90;;;;;;4995892;28;20723;-82
2021/03/28 08:32:06;;;;;;;4.70;4.17;;;10.50;99.90;;;;;;5010571;28;20425;-82
2021/03/28 08:35:09;;;;;;;8.10;4.57;;;10.60;99.90;;;;;;4978190;28;20476;-82
2021/03/28 08:38:05;;;;;;;8.80;4.53;;;10.80;99.90;;;;;;4989501;28;20436;-82
2021/03/28 08:40:38;;;;;;;10.47;5.40;;;10.90;99.90;;;;;;4994425;28;20421;-82
2021/03/28 08:43:21;;;;;;;10.13;6.70;;;11.00;99.90;;;;;;5021711;28;20427;-82
2021/03/28 08:46:08;;;;;;;7.03;5.00;;;11.20;99.90;;;;;;5005670;28;20421;-82
2021/03/28 08:49:02;;;;;;;13.30;4.90;;;11.20;99.90;;;;;;4994999;28;20424;-83
2021/03/28 08:52:03;;;;;;;10.17;4.73;;;11.30;99.90;;;;;;4985368;28;20436;-83
2021/03/28 08:55:06;;;;;;;6.77;3.90;;;11.40;99.90;;;;;;5014478;28;20467;-82
2021/03/28 08:57:57;;;;;;;5.97;4.70;;;11.60;99.90;;;;;;5014217;28;20813;-82
2021/03/28 09:01:05;;;;;;;8.50;4.40;;;12.00;99.90;;;;;;4994941;28;20839;-82
2021/03/28 09:04:03;;;;;;;7.03;5.27;;;12.30;99.90;;;;;;4997991;28;20518;-82
2021/03/28 09:06:35;;;;;;;5.53;4.20;;;12.50;99.90;;;;;;4997233;28;20741;-82
2021/03/28 09:09:10;;;;;;;7.20;4.93;;;12.60;99.90;;;;;;5014615;28;20902;-82
2021/03/28 09:12:04;;;;;;;7.50;4.30;;;12.70;99.90;;;;;;5014781;28;20412;-82
2021/03/28 09:15:09;;;;;;;12.30;4.90;;;12.70;99.90;;;;;;5014368;28;20515;-82
2021/03/28 09:18:18;;;;;;;10.37;5.37;;;12.70;99.70;;;;;;4979715;28;20472;-82
2021/03/28 09:21:07;;;;;;;7.77;4.70;;;12.50;98.60;;;;;;5013228;28;20527;-82
2021/03/28 09:23:40;;;;;;;12.00;4.37;;;12.50;99.90;;;;;;5014221;28;20912;-82
2021/03/28 09:26:27;;;;;;;4.70;4.30;;;12.60;98.80;;;;;;4997419;28;20407;-84
2021/03/28 09:29:35;;;;;;;8.67;4.77;;;12.70;97.10;;;;;;5022898;28;20786;-82
2021/03/28 09:32:39;;;;;;;6.10;5.40;;;12.70;97.10;;;;;;5014021;28;20443;-82
2021/03/28 09:35:14;;;;;;;6.30;4.37;;;12.80;97.50;;;;;;5012602;28;20451;-82
2021/03/28 09:38:02;;;;;;;10.07;4.03;;;13.10;96.60;;;;;;5012285;28;20452;-82
2021/03/28 09:41:05;;;;;;;8.80;3.90;;;13.00;94.80;;;;;;5012957;28;20500;-81
2021/03/28 09:43:56;;;;;;;6.20;4.90;;;13.10;94.40;;;;;;5028606;28;20426;-81
2021/03/28 09:47:00;;;;;;;7.70;5.20;;;13.30;94.50;;;;;;5013678;28;20587;-81
2021/03/28 09:49:37;;;;;;;5.80;4.03;;;13.60;94.10;;;;;;5012208;28;20416;-81
2021/03/28 09:52:33;;;;;;;6.13;4.70;;;13.80;93.30;;;;;;5013188;28;20435;-82
2021/03/28 09:55:17;;;;;;;8.80;4.70;;;13.90;92.00;;;;;;5027881;28;20443;-80
2021/03/28 09:58:06;;;;;;;7.77;4.17;;;13.70;90.90;;;;;;5014278;28;20494;-81
2021/03/28 10:00:57;;;;;;;6.27;3.93;;;13.70;90.90;;;;;;4995483;28;20430;-81
2021/03/28 10:03:54;;;;;;;8.33;4.23;;;13.70;90.00;;;;;;4995573;28;20433;-81
2021/03/28 10:06:25;;;;;;;7.33;4.37;;;13.70;92.00;;;;;;5000548;28;20500;-82
2021/03/28 10:09:05;;;;;;;6.40;3.83;;;13.90;91.20;;;;;;5014796;28;20433;-81
2021/03/28 10:11:46;;;;;;;6.40;4.50;;;14.00;90.30;;;;;;5014754;28;20483;-81
2021/03/28 10:14:24;;;;;;;5.37;4.87;;;14.00;90.40;;;;;;5014684;28;20809;-82
2021/03/28 10:17:14;;;;;;;6.17;4.97;;;14.00;89.90;;;;;;5013866;28;20432;-80
2021/03/28 10:19:47;;;;;;;7.90;4.20;;;13.90;90.40;;;;;;5010072;28;20426;-83
2021/03/28 10:22:41;;;;;;;6.63;4.40;;;13.90;90.00;;;;;;5013102;28;20429;-81
2021/03/28 10:25:38;;;;;;;9.80;5.00;;;14.00;90.00;;;;;;5013692;28;20425;-82
2021/03/28 10:28:22;;;;;;;5.60;4.37;;;14.20;91.00;;;;;;5006099;28;20444;-81
2021/03/28 10:31:22;;;;;;;9.83;4.30;;;14.40;89.00;;;;;;5006553;28;20482;-82
2021/03/28 10:34:30;;;;;;;8.07;3.93;;;14.70;88.40;;;;;;5008067;28;20483;-83
2021/03/28 10:37:07;;;;;;;7.07;4.80;;;14.70;87.60;;;;;;5010872;28;20457;-82
2021/03/28 10:40:18;;;;;;;5.03;4.63;;;14.90;88.90;;;;;;4996936;28;20682;-81
2021/03/28 10:43:12;;;;;;;8.33;5.30;;;15.00;85.40;;;;;;5012325;28;20732;-82
2021/03/28 10:46:03;;;;;;;4.80;4.40;;;15.30;84.50;;;;;;5010293;28;20445;-82
2021/03/28 10:48:48;;;;;;;5.33;4.83;;;15.40;84.50;;;;;;5003522;28;20444;-81
2021/03/28 10:51:37;;;;;;;10.80;4.23;;;15.40;85.00;;;;;;5007526;28;20435;-81
2021/03/28 10:54:06;;;;;;;9.40;4.60;;;15.60;84.30;;;;;;5006660;28;20468;-82
2021/03/28 10:56:43;;;;;;;5.70;4.60;;;15.70;83.20;;;;;;5013967;28;20434;-82
2021/03/28 10:59:49;;;;;;;8.07;5.00;;;15.80;82.70;;;;;;5013375;28;20463;-80
2021/03/28 11:02:34;;;;;;;7.30;5.73;;;15.40;83.00;;;;;;5013660;28;20438;-83
2021/03/28 11:05:21;;;;;;;13.37;5.10;;;15.00;83.60;;;;;;4993998;28;20439;-81
2021/03/28 11:08:02;;;;;;;7.40;5.30;;;14.90;85.10;;;;;;5009718;28;20499;-82
2021/03/28 11:11:16;;;;;;;6.60;4.20;;;15.00;85.60;;;;;;4997098;28;20413;-81
2021/03/28 11:13:48;;;;;;;8.10;4.67;;;15.00;81.90;;;;;;4999867;28;20809;-82
2021/03/28 11:16:32;;;;;;;6.33;5.10;;;15.10;82.70;;;;;;5012529;28;20454;-82
2021/03/28 11:19:19;;;;;;;7.30;4.80;;;15.20;84.50;;;;;;5013901;28;20558;-81
2021/03/28 11:22:15;;;;;;;7.13;4.70;;;15.30;83.00;;;;;;5013077;28;20780;-82
2021/03/28 11:24:43;;;;;;;4.83;4.43;;;15.20;83.40;;;;;;5014064;28;20952;-81
2021/03/28 11:27:41;;;;;;;8.77;5.30;;;15.00;83.80;;;;;;5013145;28;20461;-82
2021/03/28 11:30:25;;;;;;;6.00;5.43;;;15.10;85.40;;;;;;5012987;28;20457;-81
2021/03/28 11:33:00;;;;;;;6.07;5.00;;;15.10;85.90;;;;;;5012943;28;20784;-82
2021/03/28 11:35:28;;;;;;;10.13;5.60;;;15.20;85.30;;;;;;5012199;28;20930;-82
2021/03/28 11:38:15;;;;;;;8.17;4.90;;;15.20;85.60;;;;;;5013625;28;20877;-82
2021/03/28 11:40:51;;;;;;;5.93;4.83;;;15.40;87.20;;;;;;5018943;28;20878;-80
2021/03/28 11:43:31;;;;;;;9.13;5.77;;;15.50;84.80;;;;;;5005527;28;20477;-82
2021/03/28 11:46:24;;;;;;;5.77;5.27;;;15.30;85.60;;;;;;5013776;28;20903;-82
2021/03/28 11:48:53;;;;;;;6.47;5.83;;;15.30;86.60;;;;;;5012876;28;20456;-83
2021/03/28 11:51:22;;;;;;;6.20;5.27;;;15.30;85.50;;;;;;4996516;28;20475;-82
2021/03/28 11:54:04;;;;;;;5.00;4.60;;;15.20;83.10;;;;;;5011923;28;20455;-83
2021/03/28 11:56:33;;;;;;;8.80;4.77;;;15.20;84.80;;;;;;5012569;28;20428;-81
2021/03/28 11:59:22;;;;;;;6.63;4.63;;;15.20;83.40;;;;;;4996327;28;20963;-82
2021/03/28 12:02:03;;;;;;;4.40;4.10;;;15.20;82.90;;;;;;5012014;28;20910;-83
2021/03/28 12:04:41;;;;;;;6.43;5.03;;;15.30;81.70;;;;;;5012659;28;20423;-81
2021/03/28 12:07:30;;;;;;;9.73;5.20;;;15.20;79.90;;;;;;5002186;28;20408;-82
2021/03/28 12:10:00;;;;;;;6.90;5.50;;;15.10;78.80;;;;;;5008717;28;20443;-81
2021/03/28 12:12:42;;;;;;;6.53;4.80;;;15.20;80.80;;;;;;5013630;28;20754;-81
2021/03/28 12:15:42;;;;;;;9.87;5.17;;;15.00;80.40;;;;;;4994185;28;20436;-81
2021/03/28 12:18:21;;;;;;;5.40;4.90;;;15.00;80.50;;;;;;4994809;28;20485;-80
2021/03/28 12:20:59;;;;;;;8.00;4.70;;;15.00;78.30;;;;;;5015162;28;20458;-81
2021/03/28 12:23:39;;;;;;;5.77;4.23;;;15.20;79.60;;;;;;5016290;28;20442;-81
2021/03/28 12:26:09;;;;;;;7.60;5.37;;;15.30;80.00;;;;;;4999970;28;20421;-81
2021/03/28 12:28:44;;;;;;;5.57;5.07;;;15.30;79.10;;;;;;5016319;28;20534;-82
2021/03/28 12:31:50;;;;;;;5.83;4.83;;;15.40;80.20;;;;;;4997533;28;20435;-81
2021/03/28 12:34:47;;;;;;;6.90;5.13;;;15.30;78.50;;;;;;5010150;28;20821;-80
2021/03/28 12:37:14;;;;;;;6.27;4.87;;;15.20;79.30;;;;;;5016664;28;20492;-82
2021/03/28 12:39:43;;;;;;;7.30;5.00;;;15.20;79.80;;;;;;5016693;28;20842;-82
2021/03/28 12:42:41;;;;;;;7.63;5.40;;;15.30;79.90;;;;;;5015327;28;20435;-80
2021/03/28 12:45:11;;;;;;;8.20;5.20;;;15.20;78.40;;;;;;5015767;28;20900;-81
2021/03/28 12:47:49;;;;;;;7.57;4.47;;;15.10;79.10;;;;;;5016300;28;20436;-81
2021/03/28 12:50:15;;;;;;;5.53;4.40;;;15.30;80.70;;;;;;5016436;28;20510;-81
2021/03/28 12:53:11;;;;;;;6.73;4.80;;;15.30;78.40;;;;;;5016225;28;20889;-82
2021/03/28 12:55:50;;;;;;;9.13;5.40;;;15.20;77.10;;;;;;5015754;28;20424;-81
2021/03/28 12:58:22;;;;;;;5.07;4.57;;;15.30;78.10;;;;;;5016151;28;20437;-81
2021/03/28 13:01:05;;;;;;;6.47;4.60;;;15.30;78.50;;;;;;5016539;28;20410;-81
2021/03/28 13:03:39;;;;;;;7.83;4.37;;;15.30;78.80;;;;;;5016410;28;20422;-82
2021/03/28 13:06:42;;;;;;;6.50;4.40;;;15.30;76.70;;;;;;5016503;28;20467;-81
2021/03/28 13:09:13;;;;;;;5.10;4.20;;;15.30;75.70;;;;;;5020908;28;20908;-81
2021/03/28 13:12:08;;;;;;;11.57;6.03;;;15.30;75.80;;;;;;5029862;28;20426;-81
2021/03/28 13:14:41;;;;;;;5.70;4.93;;;15.30;75.90;;;;;;4997593;28;20465;-81
2021/03/28 13:17:31;;;;;;;8.27;4.47;;;15.50;74.90;;;;;;5010778;28;20854;-80
2021/03/28 13:20:29;;;;;;;7.77;4.73;;;15.40;73.00;;;;;;4995465;28;20924;-80
2021/03/28 13:23:29;;;;;;;5.63;4.73;;;15.40;72.00;;;;;;4999597;28;20423;-81
2021/03/28 13:26:13;;;;;;;6.90;4.57;;;15.40;70.20;;;;;;5027707;28;20509;-81
2021/03/28 13:28:57;;;;;;;4.93;4.10;;;15.40;71.40;;;;;;5016028;28;20427;-81
2021/03/28 13:31:52;;;;;;;4.80;4.40;;;15.40;72.00;;;;;;5015770;28;20475;-82
2021/03/28 13:34:51;;;;;;;5.50;4.43;;;15.40;72.80;;;;;;4996748;28;20514;-81
2021/03/28 13:37:23;;;;;;;4.77;4.37;;;15.40;73.10;;;;;;5015872;28;20427;-81
2021/03/28 13:39:52;;;;;;;5.60;4.40;;;15.50;74.60;;;;;;5016109;28;20847;-81
2021/03/28 13:42:47;;;;;;;6.80;4.60;;;15.50;74.60;;;;;;5028534;28;20426;-80
2021/03/28 13:45:23;;;;;;;6.37;4.33;;;15.40;74.40;;;;;;5015469;28;20431;-81
2021/03/28 13:48:18;;;;;;;4.83;4.33;;;15.30;73.10;;;;;;5027500;28;20438;-81
2021/03/28 13:50:51;;;;;;;5.23;4.73;;;15.20;74.40;;;;;;5019115;28;20444;-81
2021/03/28 13:53:19;;;;;;;4.80;4.37;;;15.20;75.50;;;;;;5018687;28;20453;-81
2021/03/28 13:56:03;;;;;;;7.33;4.30;;;15.10;73.70;;;;;;5035123;28;20443;-80
2021/03/28 13:58:35;;;;;;;7.30;4.53;;;15.10;74.40;;;;;;5032140;28;20408;-81
2021/03/28 14:01:19;;;;;;;9.30;4.77;;;15.10;76.20;;;;;;5015272;28;20423;-81
2021/03/28 14:04:21;;;;;;;6.17;4.57;;;15.10;75.40;;;;;;5015140;28;20847;-81
2021/03/28 14:07:15;;;;;;;6.20;4.93;;;15.20;75.20;;;;;;5015463;28;20461;-81
2021/03/28 14:10:01;;;;;;;5.80;4.10;;;15.20;76.00;;;;;;5015116;28;20884;-81
2021/03/28 14:13:03;;;;;;;13.33;4.57;;;15.10;75.60;;;;;;5014453;28;20507;-81
2021/03/28 14:15:43;;;;;;;6.60;4.83;;;15.10;76.70;;;;;;5015075;28;20507;-81
2021/03/28 14:18:15;;;;;;;6.33;3.97;;;15.00;77.30;;;;;;5014229;28;20471;-81
2021/03/28 14:21:09;;;;;;;6.73;4.20;;;15.00;78.00;;;;;;5013991;28;20515;-81
2021/03/28 14:23:46;;;;;;;7.17;4.57;;;14.90;77.00;;;;;;5020675;28;20439;-81
2021/03/28 14:26:14;;;;;;;5.37;4.97;;;14.90;77.40;;;;;;5033700;28;20432;-81
2021/03/28 14:28:45;;;;;;;10.97;5.07;;;15.00;76.90;;;;;;5034753;28;20435;-81
2021/03/28 14:31:11;;;;;;;6.07;5.67;;;14.80;76.40;;;;;;5034479;28;20412;-81
2021/03/28 14:34:14;;;;;;;5.50;5.00;;;14.70;77.00;;;;;;5033696;28;20474;-81
2021/03/28 14:37:19;;;;;;;7.37;4.30;;;14.80;78.10;;;;;;5034682;28;20441;-81
2021/03/28 14:40:07;;;;;;;7.33;5.10;;;14.80;78.40;;;;;;5034190;28;20439;-81